sensor_id;sensor_type;location;lat;lon;timestamp;pressure;altitude;pressure_sealevel;temperature;humidity
40384;BME280;26097;42.366;23.818;2023-03-18T00:00:40;94443.81;;;-4.00;100.00
40384;BME280;26097;42.366;23.818;2023-03-18T00:03:41;94437.13;;;-4.09;100.00
40384;BME280;26097;42.366;23.818;2023-03-18T00:06:41;94441.41;;;-4.11;100.00
40384;BME280;26097;42.366;23.818;2023-03-18T00:09:42;94446.50;;;-4.11;100.00
40384;BME280;26097;42.366;23.818;2023-03-18T00:12:43;94440.50;;;-4.07;100.00
40384;BME280;26097;42.366;23.818;2023-03-18T00:15:44;94435.47;;;-4.12;100.00
40384;BME280;26097;42.366;23.818;2023-03-18T00:18:44;94434.66;;;-4.16;100.00
40384;BME280;26097;42.366;23.818;2023-03-18T00:21:44;94430.38;;;-4.13;100.00
40384;BME280;26097;42.366;23.818;2023-03-18T00:24:45;94438.06;;;-4.15;100.00
40384;BME280;26097;42.366;23.818;2023-03-18T00:27:46;94432.25;;;-4.25;100.00
40384;BME280;26097;42.366;23.818;2023-03-18T00:30:46;94429.59;;;-4.19;100.00
40384;BME280;26097;42.366;23.818;2023-03-18T00:33:48;94418.50;;;-4.13;100.00
40384;BME280;26097;42.366;23.818;2023-03-18T00:36:49;94426.16;;;-4.14;100.00
40384;BME280;26097;42.366;23.818;2023-03-18T00:40:01;94421.91;;;-4.14;100.00
40384;BME280;26097;42.366;23.818;2023-03-18T00:43:05;94415.97;;;-4.11;100.00
40384;BME280;26097;42.366;23.818;2023-03-18T00:46:07;94418.59;;;-4.19;100.00
40384;BME280;26097;42.366;23.818;2023-03-18T00:49:09;94408.44;;;-4.21;100.00
40384;BME280;26097;42.366;23.818;2023-03-18T00:52:10;94405.84;;;-4.18;100.00
40384;BME280;26097;42.366;23.818;2023-03-18T00:55:10;94406.75;;;-4.22;100.00
40384;BME280;26097;42.366;23.818;2023-03-18T00:58:11;94403.31;;;-4.19;100.00
40384;BME280;26097;42.366;23.818;2023-03-18T01:01:12;94397.34;;;-4.17;100.00
40384;BME280;26097;42.366;23.818;2023-03-18T01:04:13;94395.59;;;-4.14;100.00
40384;BME280;26097;42.366;23.818;2023-03-18T01:07:14;94404.19;;;-4.22;100.00
40384;BME280;26097;42.366;23.818;2023-03-18T01:10:15;94391.53;;;-4.25;100.00
40384;BME280;26097;42.366;23.818;2023-03-18T01:13:15;94394.13;;;-4.30;100.00
40384;BME280;26097;42.366;23.818;2023-03-18T01:16:16;94389.78;;;-4.23;100.00
40384;BME280;26097;42.366;23.818;2023-03-18T01:19:17;94388.06;;;-4.21;100.00
40384;BME280;26097;42.366;23.818;2023-03-18T01:22:17;94388.06;;;-4.19;100.00
40384;BME280;26097;42.366;23.818;2023-03-18T01:25:17;94376.97;;;-4.17;100.00
40384;BME280;26097;42.366;23.818;2023-03-18T01:28:20;94380.25;;;-4.08;100.00
40384;BME280;26097;42.366;23.818;2023-03-18T01:31:21;94373.44;;;-4.06;100.00
40384;BME280;26097;42.366;23.818;2023-03-18T01:34:23;94371.81;;;-4.10;100.00
40384;BME280;26097;42.366;23.818;2023-03-18T01:37:24;94374.41;;;-4.17;100.00
40384;BME280;26097;42.366;23.818;2023-03-18T01:40:28;94374.31;;;-4.09;100.00
40384;BME280;26097;42.366;23.818;2023-03-18T01:43:32;94374.31;;;-4.07;100.00
40384;BME280;26097;42.366;23.818;2023-03-18T01:46:37;94366.72;;;-4.13;100.00
40384;BME280;26097;42.366;23.818;2023-03-18T01:49:47;94372.03;;;-4.26;100.00
40384;BME280;26097;42.366;23.818;2023-03-18T01:52:51;94361.78;;;-4.23;100.00
40384;BME280;26097;42.366;23.818;2023-03-18T01:55:54;94358.28;;;-4.16;100.00
40384;BME280;26097;42.366;23.818;2023-03-18T01:58:58;94359.97;;;-4.14;100.00
40384;BME280;26097;42.366;23.818;2023-03-18T02:02:04;94359.97;;;-4.14;100.00
40384;BME280;26097;42.366;23.818;2023-03-18T02:05:08;94360.00;;;-4.18;100.00
40384;BME280;26097;42.366;23.818;2023-03-18T02:08:10;94352.47;;;-4.22;100.00
40384;BME280;26097;42.366;23.818;2023-03-18T02:11:11;94346.66;;;-4.32;100.00
40384;BME280;26097;42.366;23.818;2023-03-18T02:14:13;94357.78;;;-4.39;100.00
40384;BME280;26097;42.366;23.818;2023-03-18T02:17:17;94351.81;;;-4.38;100.00
40384;BME280;26097;42.366;23.818;2023-03-18T02:24:07;94350.28;;;-4.49;100.00
40384;BME280;26097;42.366;23.818;2023-03-18T02:27:18;94343.56;;;-4.56;100.00
40384;BME280;26097;42.366;23.818;2023-03-18T02:30:30;94350.38;;;-4.58;100.00
40384;BME280;26097;42.366;23.818;2023-03-18T02:33:34;94347.88;;;-4.63;100.00
40384;BME280;26097;42.366;23.818;2023-03-18T02:36:36;94347.97;;;-4.67;100.00
40384;BME280;26097;42.366;23.818;2023-03-18T02:39:36;94353.88;;;-4.65;100.00
40384;BME280;26097;42.366;23.818;2023-03-18T02:42:37;94348.84;;;-4.70;100.00
40384;BME280;26097;42.366;23.818;2023-03-18T02:45:48;94349.69;;;-4.69;100.00
40384;BME280;26097;42.366;23.818;2023-03-18T02:48:50;94348.84;;;-4.68;100.00
40384;BME280;26097;42.366;23.818;2023-03-18T02:51:52;94356.59;;;-4.79;100.00
40384;BME280;26097;42.366;23.818;2023-03-18T02:54:53;94350.69;;;-4.83;100.00
40384;BME280;26097;42.366;23.818;2023-03-18T02:57:58;94359.16;;;-4.81;100.00
40384;BME280;26097;42.366;23.818;2023-03-18T03:00:58;94354.94;;;-4.83;100.00
40384;BME280;26097;42.366;23.818;2023-03-18T03:04:00;94352.34;;;-4.79;100.00
40384;BME280;26097;42.366;23.818;2023-03-18T03:07:00;94351.56;;;-4.85;100.00
40384;BME280;26097;42.366;23.818;2023-03-18T03:10:03;94357.59;;;-4.91;100.00
40384;BME280;26097;42.366;23.818;2023-03-18T03:13:05;94353.34;;;-4.91;100.00
40384;BME280;26097;42.366;23.818;2023-03-18T03:16:05;94362.72;;;-4.97;100.00
40384;BME280;26097;42.366;23.818;2023-03-18T03:19:07;94352.56;;;-4.97;100.00
40384;BME280;26097;42.366;23.818;2023-03-18T03:22:07;94351.66;;;-4.90;100.00
40384;BME280;26097;42.366;23.818;2023-03-18T03:25:10;94350.78;;;-4.92;100.00
40384;BME280;26097;42.366;23.818;2023-03-18T03:28:12;94355.78;;;-4.84;100.00
40384;BME280;26097;42.366;23.818;2023-03-18T03:31:13;94355.88;;;-4.89;100.00
40384;BME280;26097;42.366;23.818;2023-03-18T03:34:14;94358.47;;;-4.94;100.00
40384;BME280;26097;42.366;23.818;2023-03-18T03:37:14;94365.31;;;-4.99;100.00
40384;BME280;26097;42.366;23.818;2023-03-18T03:40:16;94363.59;;;-4.97;100.00
40384;BME280;26097;42.366;23.818;2023-03-18T03:43:17;94365.31;;;-4.99;100.00
40384;BME280;26097;42.366;23.818;2023-03-18T03:46:17;94368.72;;;-5.00;100.00
40384;BME280;26097;42.366;23.818;2023-03-18T03:49:18;94366.06;;;-4.92;100.00
40384;BME280;26097;42.366;23.818;2023-03-18T03:52:18;94359.28;;;-4.93;100.00
40384;BME280;26097;42.366;23.818;2023-03-18T03:55:20;94367.03;;;-5.03;100.00
40384;BME280;26097;42.366;23.818;2023-03-18T03:58:21;94366.16;;;-5.02;100.00
40384;BME280;26097;42.366;23.818;2023-03-18T04:01:22;94364.38;;;-4.93;100.00
40384;BME280;26097;42.366;23.818;2023-03-18T04:04:23;94370.41;;;-5.02;100.00
40384;BME280;26097;42.366;23.818;2023-03-18T04:07:23;94371.34;;;-5.09;100.00
40384;BME280;26097;42.366;23.818;2023-03-18T04:10:25;94374.78;;;-5.15;100.00
40384;BME280;26097;42.366;23.818;2023-03-18T04:13:26;94374.88;;;-5.24;100.00
40384;BME280;26097;42.366;23.818;2023-03-18T04:16:26;94370.59;;;-5.18;100.00
40384;BME280;26097;42.366;23.818;2023-03-18T04:19:27;94376.47;;;-5.14;100.00
40384;BME280;26097;42.366;23.818;2023-03-18T04:22:28;94382.47;;;-5.21;100.00
40384;BME280;26097;42.366;23.818;2023-03-18T04:25:29;94389.38;;;-5.34;100.00
40384;BME280;26097;42.366;23.818;2023-03-18T04:28:30;94384.28;;;-5.33;100.00
40384;BME280;26097;42.366;23.818;2023-03-18T04:31:31;94394.41;;;-5.28;100.00
40384;BME280;26097;42.366;23.818;2023-03-18T04:34:31;94398.59;;;-5.22;100.00
40384;BME280;26097;42.366;23.818;2023-03-18T04:37:32;94402.69;;;-5.12;100.00
40384;BME280;26097;42.366;23.818;2023-03-18T04:40:34;94412.00;;;-5.08;100.00
40384;BME280;26097;42.366;23.818;2023-03-18T04:43:35;94400.91;;;-5.02;100.00
40384;BME280;26097;42.366;23.818;2023-03-18T04:46:35;94403.47;;;-5.04;100.00
40384;BME280;26097;42.366;23.818;2023-03-18T04:49:37;94406.13;;;-5.14;100.00
40384;BME280;26097;42.366;23.818;2023-03-18T04:52:38;94411.22;;;-5.16;100.00
40384;BME280;26097;42.366;23.818;2023-03-18T04:55:39;94415.41;;;-5.12;100.00
40384;BME280;26097;42.366;23.818;2023-03-18T04:58:39;94406.84;;;-5.02;100.00
40384;BME280;26097;42.366;23.818;2023-03-18T05:01:40;94416.97;;;-4.97;100.00
40384;BME280;26097;42.366;23.818;2023-03-18T05:04:40;94414.31;;;-4.88;100.00
40384;BME280;26097;42.366;23.818;2023-03-18T05:07:41;94419.25;;;-4.74;100.00
40384;BME280;26097;42.366;23.818;2023-03-18T05:10:42;94414.88;;;-4.62;100.00
40384;BME280;26097;42.366;23.818;2023-03-18T05:13:43;94415.56;;;-4.49;100.00
40384;BME280;26097;42.366;23.818;2023-03-18T05:16:43;94419.63;;;-4.34;100.00
40384;BME280;26097;42.366;23.818;2023-03-18T05:19:45;94417.75;;;-4.20;100.00
40384;BME280;26097;42.366;23.818;2023-03-18T05:22:46;94414.19;;;-4.06;100.00
40384;BME280;26097;42.366;23.818;2023-03-18T05:25:47;94402.22;;;-4.01;100.00
40384;BME280;26097;42.366;23.818;2023-03-18T05:28:48;94407.91;;;-3.85;100.00
40384;BME280;26097;42.366;23.818;2023-03-18T05:31:48;94405.94;;;-3.67;100.00
40384;BME280;26097;42.366;23.818;2023-03-18T05:34:49;94409.94;;;-3.49;100.00
40384;BME280;26097;42.366;23.818;2023-03-18T05:37:49;94416.50;;;-3.36;100.00
40384;BME280;26097;42.366;23.818;2023-03-18T05:40:50;94404.25;;;-3.15;100.00
40384;BME280;26097;42.366;23.818;2023-03-18T05:43:50;94415.78;;;-2.95;100.00
40384;BME280;26097;42.366;23.818;2023-03-18T05:46:51;94405.25;;;-2.77;100.00
40384;BME280;26097;42.366;23.818;2023-03-18T05:49:52;94404.09;;;-2.60;100.00
40384;BME280;26097;42.366;23.818;2023-03-18T05:52:52;94403.84;;;-2.48;100.00
40384;BME280;26097;42.366;23.818;2023-03-18T05:55:52;94401.06;;;-2.35;100.00
40384;BME280;26097;42.366;23.818;2023-03-18T05:58:53;94403.38;;;-2.24;100.00
40384;BME280;26097;42.366;23.818;2023-03-18T06:01:53;94404.72;;;-2.08;100.00
40384;BME280;26097;42.366;23.818;2023-03-18T06:04:54;94397.44;;;-1.87;100.00
40384;BME280;26097;42.366;23.818;2023-03-18T06:07:54;94408.88;;;-1.64;100.00
40384;BME280;26097;42.366;23.818;2023-03-18T06:10:54;94396.56;;;-1.48;100.00
40384;BME280;26097;42.366;23.818;2023-03-18T06:13:55;94402.19;;;-1.34;100.00
40384;BME280;26097;42.366;23.818;2023-03-18T06:16:55;94398.38;;;-1.17;100.00
40384;BME280;26097;42.366;23.818;2023-03-18T06:19:56;94397.88;;;-0.98;100.00
40384;BME280;26097;42.366;23.818;2023-03-18T06:22:58;94404.25;;;-0.80;100.00
40384;BME280;26097;42.366;23.818;2023-03-18T06:25:58;94404.66;;;-0.64;100.00
40384;BME280;26097;42.366;23.818;2023-03-18T06:28:59;94398.25;;;-0.48;100.00
40384;BME280;26097;42.366;23.818;2023-03-18T06:31:59;94394.19;;;-0.25;100.00
40384;BME280;26097;42.366;23.818;2023-03-18T06:35:00;94401.03;;;0.05;100.00
40384;BME280;26097;42.366;23.818;2023-03-18T06:38:00;94396.22;;;0.22;100.00
40384;BME280;26097;42.366;23.818;2023-03-18T06:41:02;94387.94;;;0.42;100.00
40384;BME280;26097;42.366;23.818;2023-03-18T06:44:02;94388.31;;;0.57;100.00
40384;BME280;26097;42.366;23.818;2023-03-18T06:47:03;94392.66;;;0.82;100.00
40384;BME280;26097;42.366;23.818;2023-03-18T06:50:04;94392.19;;;0.96;100.00
40384;BME280;26097;42.366;23.818;2023-03-18T06:53:05;94391.16;;;1.02;100.00
40384;BME280;26097;42.366;23.818;2023-03-18T06:56:06;94395.66;;;1.20;100.00
40384;BME280;26097;42.366;23.818;2023-03-18T06:59:07;94389.59;;;1.47;100.00
40384;BME280;26097;42.366;23.818;2023-03-18T07:02:09;94386.94;;;1.50;100.00
40384;BME280;26097;42.366;23.818;2023-03-18T07:05:11;94385.44;;;1.68;100.00
40384;BME280;26097;42.366;23.818;2023-03-18T07:08:11;94388.06;;;1.90;100.00
40384;BME280;26097;42.366;23.818;2023-03-18T07:11:12;94385.44;;;2.14;100.00
40384;BME280;26097;42.366;23.818;2023-03-18T07:14:12;94389.38;;;2.45;100.00
40384;BME280;26097;42.366;23.818;2023-03-18T07:17:16;94389.72;;;3.01;100.00
40384;BME280;26097;42.366;23.818;2023-03-18T07:20:16;94382.06;;;3.41;100.00
40384;BME280;26097;42.366;23.818;2023-03-18T07:23:17;94390.25;;;3.70;100.00
40384;BME280;26097;42.366;23.818;2023-03-18T07:26:17;94386.78;;;4.09;100.00
40384;BME280;26097;42.366;23.818;2023-03-18T07:29:18;94382.31;;;4.32;100.00
40384;BME280;26097;42.366;23.818;2023-03-18T07:32:18;94379.66;;;4.53;100.00
40384;BME280;26097;42.366;23.818;2023-03-18T07:35:19;94382.03;;;4.38;100.00
40384;BME280;26097;42.366;23.818;2023-03-18T07:38:19;94384.44;;;4.78;100.00
40384;BME280;26097;42.366;23.818;2023-03-18T07:41:20;94385.75;;;5.05;100.00
40384;BME280;26097;42.366;23.818;2023-03-18T07:44:20;94387.81;;;5.33;100.00
40384;BME280;26097;42.366;23.818;2023-03-18T07:47:21;94388.56;;;5.35;100.00
40384;BME280;26097;42.366;23.818;2023-03-18T07:50:23;94387.25;;;5.44;100.00
40384;BME280;26097;42.366;23.818;2023-03-18T07:53:23;94381.84;;;5.49;100.00
40384;BME280;26097;42.366;23.818;2023-03-18T07:56:24;94385.78;;;5.56;100.00
40384;BME280;26097;42.366;23.818;2023-03-18T07:59:26;94387.84;;;5.49;100.00
40384;BME280;26097;42.366;23.818;2023-03-18T08:02:26;94387.31;;;5.94;100.00
40384;BME280;26097;42.366;23.818;2023-03-18T08:05:27;94387.34;;;6.26;100.00
40384;BME280;26097;42.366;23.818;2023-03-18T08:08:28;94377.75;;;6.28;100.00
40384;BME280;26097;42.366;23.818;2023-03-18T08:11:29;94381.16;;;6.45;83.01
40384;BME280;26097;42.366;23.818;2023-03-18T08:14:30;94385.78;;;6.39;76.10
40384;BME280;26097;42.366;23.818;2023-03-18T08:17:30;94394.63;;;6.35;75.75
40384;BME280;26097;42.366;23.818;2023-03-18T08:20:31;94395.78;;;6.46;73.70
40384;BME280;26097;42.366;23.818;2023-03-18T08:23:32;94392.28;;;6.47;71.57
40384;BME280;26097;42.366;23.818;2023-03-18T08:26:33;94394.13;;;6.45;67.91
40384;BME280;26097;42.366;23.818;2023-03-18T08:29:34;94395.63;;;6.33;67.77
40384;BME280;26097;42.366;23.818;2023-03-18T08:32:34;94388.28;;;6.09;66.63
40384;BME280;26097;42.366;23.818;2023-03-18T08:35:35;94390.06;;;5.91;66.71
40384;BME280;26097;42.366;23.818;2023-03-18T08:38:35;94389.53;;;5.84;67.04
40384;BME280;26097;42.366;23.818;2023-03-18T08:41:36;94397.59;;;5.44;68.81
40384;BME280;26097;42.366;23.818;2023-03-18T08:44:36;94394.88;;;5.29;69.04
40384;BME280;26097;42.366;23.818;2023-03-18T08:47:37;94378.59;;;5.45;68.97
40384;BME280;26097;42.366;23.818;2023-03-18T08:50:37;94380.41;;;5.43;68.54
40384;BME280;26097;42.366;23.818;2023-03-18T08:53:38;94386.53;;;5.24;68.25
40384;BME280;26097;42.366;23.818;2023-03-18T08:56:38;94383.75;;;5.45;67.60
40384;BME280;26097;42.366;23.818;2023-03-18T08:59:38;94385.78;;;5.56;67.20
40384;BME280;26097;42.366;23.818;2023-03-18T09:02:39;94392.53;;;5.42;65.96
40384;BME280;26097;42.366;23.818;2023-03-18T09:05:40;94393.16;;;5.64;64.42
40384;BME280;26097;42.366;23.818;2023-03-18T09:08:41;94388.19;;;5.77;62.75
40384;BME280;26097;42.366;23.818;2023-03-18T09:11:42;94385.78;;;5.56;63.13
40384;BME280;26097;42.366;23.818;2023-03-18T09:14:45;94388.84;;;5.80;61.96
40384;BME280;26097;42.366;23.818;2023-03-18T09:17:47;94378.78;;;6.09;61.46
40384;BME280;26097;42.366;23.818;2023-03-18T09:20:47;94380.25;;;6.46;60.29
40384;BME280;26097;42.366;23.818;2023-03-18T09:23:48;94375.66;;;6.19;58.46
40384;BME280;26097;42.366;23.818;2023-03-18T09:26:49;94374.53;;;6.71;58.74
40384;BME280;26097;42.366;23.818;2023-03-18T09:29:50;94366.13;;;7.28;58.24
40384;BME280;26097;42.366;23.818;2023-03-18T09:32:51;94360.97;;;7.72;57.45
40384;BME280;26097;42.366;23.818;2023-03-18T09:35:51;94361.31;;;7.95;57.51
40384;BME280;26097;42.366;23.818;2023-03-18T09:38:53;94353.47;;;8.38;56.17
40384;BME280;26097;42.366;23.818;2023-03-18T09:45:59;94368.38;;;8.49;49.78
40384;BME280;26097;42.366;23.818;2023-03-18T09:52:21;94353.19;;;8.57;49.25
40384;BME280;26097;42.366;23.818;2023-03-18T09:55:36;94355.53;;;8.75;49.07
40384;BME280;26097;42.366;23.818;2023-03-18T09:58:59;94347.94;;;9.64;48.43
40384;BME280;26097;42.366;23.818;2023-03-18T10:02:07;94343.69;;;10.26;47.53
40384;BME280;26097;42.366;23.818;2023-03-18T10:05:17;94353.53;;;9.19;47.32
40384;BME280;26097;42.366;23.818;2023-03-18T10:08:28;94351.41;;;8.43;48.21
40384;BME280;26097;42.366;23.818;2023-03-18T10:18:13;94369.22;;;7.64;47.99
40384;BME280;26097;42.366;23.818;2023-03-18T10:21:29;94364.13;;;7.48;48.31
40384;BME280;26097;42.366;23.818;2023-03-18T10:25:18;94366.13;;;7.43;49.00
40384;BME280;26097;42.366;23.818;2023-03-18T10:28:42;94366.00;;;7.30;46.52
40384;BME280;26097;42.366;23.818;2023-03-18T10:38:38;94376.63;;;7.11;46.90
40384;BME280;26097;42.366;23.818;2023-03-18T10:41:39;94378.31;;;7.26;48.91
40384;BME280;26097;42.366;23.818;2023-03-18T10:44:42;94377.09;;;7.48;49.05
40384;BME280;26097;42.366;23.818;2023-03-18T10:47:50;94373.94;;;7.72;48.91
40384;BME280;26097;42.366;23.818;2023-03-18T10:54:09;94383.03;;;7.79;47.52
40384;BME280;26097;42.366;23.818;2023-03-18T10:57:15;94367.91;;;8.00;47.41
40384;BME280;26097;42.366;23.818;2023-03-18T11:00:28;94370.66;;;8.12;46.11
40384;BME280;26097;42.366;23.818;2023-03-18T11:03:34;94363.03;;;8.38;48.27
40384;BME280;26097;42.366;23.818;2023-03-18T11:06:42;94366.03;;;8.59;48.16
40384;BME280;26097;42.366;23.818;2023-03-18T11:09:44;94369.00;;;8.67;46.03
40384;BME280;26097;42.366;23.818;2023-03-18T11:12:45;94367.00;;;8.98;47.67
40384;BME280;26097;42.366;23.818;2023-03-18T11:15:49;94374.69;;;8.87;48.16
40384;BME280;26097;42.366;23.818;2023-03-18T11:18:50;94376.84;;;8.53;48.52
40384;BME280;26097;42.366;23.818;2023-03-18T11:25:24;94370.09;;;8.36;49.56
40384;BME280;26097;42.366;23.818;2023-03-18T11:28:28;94372.44;;;8.26;48.42
40384;BME280;26097;42.366;23.818;2023-03-18T11:31:29;94376.16;;;8.07;49.17
40384;BME280;26097;42.366;23.818;2023-03-18T11:34:32;94386.06;;;7.71;50.08
40384;BME280;26097;42.366;23.818;2023-03-18T11:37:36;94388.06;;;7.07;53.51
40384;BME280;26097;42.366;23.818;2023-03-18T11:40:38;94387.13;;;6.93;55.85
40384;BME280;26097;42.366;23.818;2023-03-18T11:43:59;94390.94;;;6.55;56.37
40384;BME280;26097;42.366;23.818;2023-03-18T11:50:17;94387.94;;;7.10;54.94
40384;BME280;26097;42.366;23.818;2023-03-18T11:53:49;94388.94;;;7.52;53.27
40384;BME280;26097;42.366;23.818;2023-03-18T11:56:49;94393.72;;;7.44;53.80
40384;BME280;26097;42.366;23.818;2023-03-18T11:59:59;94390.06;;;7.48;54.39
40384;BME280;26097;42.366;23.818;2023-03-18T12:06:19;94394.09;;;7.38;55.96
40384;BME280;26097;42.366;23.818;2023-03-18T12:09:29;94394.88;;;7.54;54.26
40384;BME280;26097;42.366;23.818;2023-03-18T12:35:48;94439.28;;;4.66;84.42
40384;BME280;26097;42.366;23.818;2023-03-18T12:42:24;94427.13;;;5.22;83.02
40384;BME280;26097;42.366;23.818;2023-03-18T12:45:34;94423.00;;;5.36;83.22
40384;BME280;26097;42.366;23.818;2023-03-18T12:48:57;94421.09;;;5.39;82.58
40384;BME280;26097;42.366;23.818;2023-03-18T12:55:25;94414.94;;;5.07;77.34
40384;BME280;26097;42.366;23.818;2023-03-18T12:58:31;94411.59;;;5.40;74.77
40384;BME280;26097;42.366;23.818;2023-03-18T13:01:48;94404.75;;;5.39;76.03
40384;BME280;26097;42.366;23.818;2023-03-18T13:04:58;94399.72;;;5.87;72.56
40384;BME280;26097;42.366;23.818;2023-03-18T13:14:50;94418.19;;;7.40;67.61
40384;BME280;26097;42.366;23.818;2023-03-18T13:17:56;94412.13;;;8.28;65.50
40384;BME280;26097;42.366;23.818;2023-03-18T13:20:59;94415.47;;;8.72;62.99
40384;BME280;26097;42.366;23.818;2023-03-18T13:27:47;94405.00;;;9.54;57.18
40384;BME280;26097;42.366;23.818;2023-03-18T13:43:55;94390.66;;;10.38;54.43
40384;BME280;26097;42.366;23.818;2023-03-18T13:47:00;94392.47;;;10.11;54.86
40384;BME280;26097;42.366;23.818;2023-03-18T13:50:30;94395.06;;;9.21;56.32
40384;BME280;26097;42.366;23.818;2023-03-18T13:53:32;94391.41;;;9.23;57.87
40384;BME280;26097;42.366;23.818;2023-03-18T13:59:44;94396.00;;;9.33;54.46
40384;BME280;26097;42.366;23.818;2023-03-18T14:03:15;94398.28;;;9.24;54.33
40384;BME280;26097;42.366;23.818;2023-03-18T14:06:21;94387.66;;;9.14;55.91
40384;BME280;26097;42.366;23.818;2023-03-18T14:09:32;94387.13;;;9.22;55.61
40384;BME280;26097;42.366;23.818;2023-03-18T14:15:41;94372.66;;;9.05;52.65
40384;BME280;26097;42.366;23.818;2023-03-18T14:18:43;94370.53;;;8.97;52.37
40384;BME280;26097;42.366;23.818;2023-03-18T14:21:46;94371.41;;;9.11;53.10
40384;BME280;26097;42.366;23.818;2023-03-18T14:28:39;94374.25;;;8.80;52.99
40384;BME280;26097;42.366;23.818;2023-03-18T14:41:27;94364.50;;;8.42;52.75
40384;BME280;26097;42.366;23.818;2023-03-18T14:44:51;94370.50;;;8.42;53.62
40384;BME280;26097;42.366;23.818;2023-03-18T14:47:54;94372.19;;;8.43;53.63
40384;BME280;26097;42.366;23.818;2023-03-18T14:50:56;94375.63;;;8.44;53.07
40384;BME280;26097;42.366;23.818;2023-03-18T14:54:03;94379.88;;;8.45;53.17
40384;BME280;26097;42.366;23.818;2023-03-18T14:57:04;94379.22;;;8.41;51.92
40384;BME280;26097;42.366;23.818;2023-03-18T15:00:11;94376.19;;;8.35;52.57
40384;BME280;26097;42.366;23.818;2023-03-18T15:03:26;94369.41;;;8.47;51.86
40384;BME280;26097;42.366;23.818;2023-03-18T15:06:28;94375.38;;;8.34;52.86
40384;BME280;26097;42.366;23.818;2023-03-18T15:09:30;94376.59;;;8.14;52.58
40384;BME280;26097;42.366;23.818;2023-03-18T15:12:33;94386.91;;;8.01;53.07
40384;BME280;26097;42.366;23.818;2023-03-18T15:15:34;94382.81;;;7.82;53.07
40384;BME280;26097;42.366;23.818;2023-03-18T15:18:37;94389.00;;;7.51;53.50
40384;BME280;26097;42.366;23.818;2023-03-18T15:21:38;94387.78;;;7.42;54.51
40384;BME280;26097;42.366;23.818;2023-03-18T15:24:38;94393.13;;;7.24;54.55
40384;BME280;26097;42.366;23.818;2023-03-18T15:27:39;94388.69;;;7.12;55.01
40384;BME280;26097;42.366;23.818;2023-03-18T15:30:50;94384.84;;;7.03;54.80
40384;BME280;26097;42.366;23.818;2023-03-18T15:34:10;94388.88;;;6.93;55.39
40384;BME280;26097;42.366;23.818;2023-03-18T15:37:34;94384.56;;;6.77;55.75
40384;BME280;26097;42.366;23.818;2023-03-18T15:40:50;94387.59;;;6.69;56.24
40384;BME280;26097;42.366;23.818;2023-03-18T15:43:51;94392.69;;;6.55;56.61
40384;BME280;26097;42.366;23.818;2023-03-18T15:46:52;94391.59;;;6.27;56.73
40384;BME280;26097;42.366;23.818;2023-03-18T15:53:17;94398.03;;;5.70;59.30
40384;BME280;26097;42.366;23.818;2023-03-18T15:56:28;94399.28;;;5.45;59.85
40384;BME280;26097;42.366;23.818;2023-03-18T15:59:31;94406.50;;;5.21;60.94
40384;BME280;26097;42.366;23.818;2023-03-18T16:02:32;94402.84;;;4.90;61.72
40384;BME280;26097;42.366;23.818;2023-03-18T16:05:33;94406.91;;;4.58;62.70
40384;BME280;26097;42.366;23.818;2023-03-18T16:08:33;94416.16;;;4.26;63.67
40384;BME280;26097;42.366;23.818;2023-03-18T16:11:33;94421.53;;;4.02;64.28
40384;BME280;26097;42.366;23.818;2023-03-18T16:14:42;94416.63;;;3.77;65.76
40384;BME280;26097;42.366;23.818;2023-03-18T16:17:43;94427.56;;;3.42;67.38
40384;BME280;26097;42.366;23.818;2023-03-18T16:20:44;94420.97;;;3.14;68.92
40384;BME280;26097;42.366;23.818;2023-03-18T16:23:46;94425.19;;;2.94;69.41
40384;BME280;26097;42.366;23.818;2023-03-18T16:26:47;94435.72;;;2.67;71.05
40384;BME280;26097;42.366;23.818;2023-03-18T16:29:48;94428.19;;;2.40;71.82
40384;BME280;26097;42.366;23.818;2023-03-18T16:32:49;94441.13;;;2.15;72.86
40384;BME280;26097;42.366;23.818;2023-03-18T16:35:56;94436.72;;;1.95;74.84
40384;BME280;26097;42.366;23.818;2023-03-18T16:38:57;94452.78;;;1.76;75.42
40384;BME280;26097;42.366;23.818;2023-03-18T16:42:01;94443.41;;;1.51;76.19
40384;BME280;26097;42.366;23.818;2023-03-18T16:45:08;94450.94;;;1.31;76.81
40384;BME280;26097;42.366;23.818;2023-03-18T16:48:14;94454.03;;;1.15;77.54
40384;BME280;26097;42.366;23.818;2023-03-18T16:51:16;94457.00;;;1.03;77.20
40384;BME280;26097;42.366;23.818;2023-03-18T16:57:20;94457.50;;;0.60;79.82
40384;BME280;26097;42.366;23.818;2023-03-18T17:00:24;94458.00;;;0.43;81.75
40384;BME280;26097;42.366;23.818;2023-03-18T17:03:25;94465.25;;;0.28;82.90
40384;BME280;26097;42.366;23.818;2023-03-18T17:06:25;94463.91;;;0.17;82.98
40384;BME280;26097;42.366;23.818;2023-03-18T17:09:26;94473.78;;;0.01;83.46
40384;BME280;26097;42.366;23.818;2023-03-18T17:12:27;94473.16;;;-0.08;85.20
40384;BME280;26097;42.366;23.818;2023-03-18T17:15:30;94476.84;;;-0.18;89.22
40384;BME280;26097;42.366;23.818;2023-03-18T17:18:31;94474.88;;;-0.40;91.18
40384;BME280;26097;42.366;23.818;2023-03-18T17:21:32;94477.75;;;-0.52;92.48
40384;BME280;26097;42.366;23.818;2023-03-18T17:24:32;94485.59;;;-0.59;91.77
40384;BME280;26097;42.366;23.818;2023-03-18T17:27:57;94475.41;;;-0.60;93.07
40384;BME280;26097;42.366;23.818;2023-03-18T17:30:56;94474.97;;;-0.76;93.71
40384;BME280;26097;42.366;23.818;2023-03-18T17:33:56;94477.78;;;-0.87;94.58
40384;BME280;26097;42.366;23.818;2023-03-18T17:36:56;94483.88;;;-0.91;96.34
40384;BME280;26097;42.366;23.818;2023-03-18T17:39:57;94481.53;;;-1.01;96.96
40384;BME280;26097;42.366;23.818;2023-03-18T17:42:58;94489.38;;;-1.08;97.32
40384;BME280;26097;42.366;23.818;2023-03-18T17:46:01;94494.66;;;-1.15;98.64
40384;BME280;26097;42.366;23.818;2023-03-18T17:49:09;94498.38;;;-1.28;100.00
40384;BME280;26097;42.366;23.818;2023-03-18T17:52:12;94504.56;;;-1.37;100.00
40384;BME280;26097;42.366;23.818;2023-03-18T17:55:21;94523.38;;;-1.41;100.00